Time;durP1;ratioP1;P1;durP2;ratioP2;P2;SDS_P1;SDS_P2;PMS_P1;PMS_P2;Temp;Humidity;BMP_temperature;BMP_pressure;BME280_temperature;BME280_humidity;BME280_pressure;Samples;Min_cycle;Max_cycle;Signal;HPM_P1;HPM_P2
2023/03/10 00:00:18;;;;;;;4.38;1.50;;;;;;;;;;5030709;28;20026;-63
2023/03/10 00:02:48;;;;;;;3.40;1.17;;;;;;;;;;5050422;28;20477;-63
2023/03/10 00:05:15;;;;;;;3.55;1.17;;;;;;;;;;5034243;28;20501;-63
2023/03/10 00:07:41;;;;;;;2.60;1.30;;;;;;;;;;5030521;28;20034;-63
2023/03/10 00:10:07;;;;;;;2.13;1.08;;;;;;;;;;5030731;28;20042;-64
2023/03/10 00:12:33;;;;;;;2.53;1.30;;;;;;;;;;5029949;28;20501;-63
2023/03/10 00:14:59;;;;;;;2.38;0.95;;;;;;;;;;5030323;28;20072;-63
2023/03/10 00:17:25;;;;;;;3.20;1.20;;;;;;;;;;5029907;28;20441;-63
2023/03/10 00:19:51;;;;;;;1.63;0.85;;;;;;;;;;5030861;28;20035;-63
2023/03/10 00:22:17;;;;;;;2.97;1.13;;;;;;;;;;5030194;28;20029;-63
2023/03/10 00:24:43;;;;;;;2.22;1.20;;;;;;;;;;5031018;28;20497;-63
2023/03/10 00:27:09;;;;;;;3.42;1.13;;;;;;;;;;5030185;28;20022;-63
2023/03/10 00:29:35;;;;;;;1.95;1.00;;;;;;;;;;5030283;28;20056;-63
2023/03/10 00:32:01;;;;;;;3.25;1.48;;;;;;;;;;5030262;28;20057;-64
2023/03/10 00:34:27;;;;;;;2.80;1.05;;;;;;;;;;5032857;28;20053;-63
2023/03/10 00:36:53;;;;;;;2.05;0.90;;;;;;;;;;5044720;28;20428;-63
2023/03/10 00:39:19;;;;;;;3.30;1.30;;;;;;;;;;5029869;28;20022;-64
2023/03/10 00:41:45;;;;;;;3.20;1.10;;;;;;;;;;5030124;28;20442;-63
2023/03/10 00:44:11;;;;;;;3.28;1.25;;;;;;;;;;5030795;28;20029;-64
2023/03/10 00:46:37;;;;;;;3.55;1.42;;;;;;;;;;5033574;28;20029;-63
2023/03/10 00:49:04;;;;;;;3.25;1.20;;;;;;;;;;5034007;28;20026;-63
2023/03/10 00:51:30;;;;;;;3.38;1.20;;;;;;;;;;5033484;28;20037;-63
2023/03/10 00:53:56;;;;;;;2.20;1.10;;;;;;;;;;5050009;28;20017;-63
2023/03/10 00:56:23;;;;;;;1.95;0.90;;;;;;;;;;5051098;28;20036;-63
2023/03/10 00:58:50;;;;;;;3.63;1.20;;;;;;;;;;5034305;28;20404;-63
2023/03/10 01:01:24;;;;;;;5.05;1.45;;;;;;;;;;5033907;28;20044;-63
2023/03/10 01:03:51;;;;;;;2.10;1.05;;;;;;;;;;5033909;28;20029;-63
2023/03/10 01:06:17;;;;;;;5.05;1.05;;;;;;;;;;5033563;28;20032;-64
2023/03/10 01:08:43;;;;;;;4.50;0.90;;;;;;;;;;5037831;28;20029;-64
2023/03/10 01:11:10;;;;;;;2.33;0.85;;;;;;;;;;5053927;28;20040;-64
2023/03/10 01:13:36;;;;;;;3.47;1.05;;;;;;;;;;5053633;28;20029;-63
2023/03/10 01:16:03;;;;;;;2.85;1.10;;;;;;;;;;5053590;28;20054;-64
2023/03/10 01:18:29;;;;;;;2.75;1.17;;;;;;;;;;5053397;28;20482;-64
2023/03/10 01:20:55;;;;;;;3.50;1.15;;;;;;;;;;5053433;28;20047;-64
2023/03/10 01:23:22;;;;;;;3.30;1.00;;;;;;;;;;5053075;28;20398;-64
2023/03/10 01:25:48;;;;;;;4.45;1.10;;;;;;;;;;5053621;28;20031;-64
2023/03/10 01:28:14;;;;;;;6.45;1.13;;;;;;;;;;5036513;28;20025;-64
2023/03/10 01:30:41;;;;;;;3.15;1.10;;;;;;;;;;5033474;28;20394;-64
2023/03/10 01:33:07;;;;;;;2.80;0.90;;;;;;;;;;5032943;28;20076;-64
2023/03/10 01:35:33;;;;;;;2.50;0.98;;;;;;;;;;5033281;28;20044;-63
2023/03/10 01:37:59;;;;;;;4.18;1.05;;;;;;;;;;5033082;28;20065;-64
2023/03/10 01:40:26;;;;;;;4.13;1.20;;;;;;;;;;5032585;28;20029;-64
2023/03/10 01:42:52;;;;;;;3.45;1.50;;;;;;;;;;5032941;28;20398;-64
2023/03/10 01:45:18;;;;;;;3.28;0.90;;;;;;;;;;5032564;28;20032;-64
2023/03/10 01:47:44;;;;;;;3.72;1.05;;;;;;;;;;5032843;28;20034;-64
2023/03/10 01:50:13;;;;;;;3.33;0.90;;;;;;;;;;5032649;28;20037;-64
2023/03/10 01:52:39;;;;;;;3.90;1.20;;;;;;;;;;5032678;28;20516;-64
2023/03/10 01:55:06;;;;;;;4.03;1.40;;;;;;;;;;5040484;28;20477;-63
2023/03/10 01:57:36;;;;;;;4.00;1.27;;;;;;;;;;5053005;28;20391;-64
2023/03/10 02:00:04;;;;;;;3.28;1.17;;;;;;;;;;5037628;28;20076;-64
2023/03/10 02:02:32;;;;;;;4.32;1.48;;;;;;;;;;5032632;28;20025;-64
2023/03/10 02:04:58;;;;;;;3.20;1.45;;;;;;;;;;5032911;28;20040;-64
2023/03/10 02:07:26;;;;;;;4.35;1.08;;;;;;;;;;5032723;28;20024;-64
2023/03/10 02:09:52;;;;;;;3.78;1.38;;;;;;;;;;5032700;28;20045;-64
2023/03/10 02:12:18;;;;;;;4.30;1.10;;;;;;;;;;5048197;28;20028;-63
2023/03/10 02:14:46;;;;;;;6.25;1.40;;;;;;;;;;5052505;28;20029;-64
2023/03/10 02:17:15;;;;;;;3.75;1.23;;;;;;;;;;5052634;28;20100;-64
2023/03/10 02:19:41;;;;;;;4.30;1.30;;;;;;;;;;5052772;28;20174;-64
2023/03/10 02:22:09;;;;;;;4.80;1.58;;;;;;;;;;5052460;28;20497;-64
2023/03/10 02:24:41;;;;;;;6.45;1.77;;;;;;;;;;5052033;28;20374;-64
2023/03/10 02:27:16;;;;;;;5.72;1.20;;;;;;;;;;5052518;28;20041;-64
2023/03/10 02:29:51;;;;;;;3.80;1.33;;;;;;;;;;5012943;28;20049;-64
2023/03/10 02:32:18;;;;;;;5.07;1.58;;;;;;;;;;5016612;28;20288;-64
2023/03/10 02:34:44;;;;;;;4.38;1.50;;;;;;;;;;5032357;28;20033;-64
2023/03/10 02:37:24;;;;;;;4.47;1.60;;;;;;;;;;5032749;28;20056;-64
2023/03/10 02:39:50;;;;;;;5.25;1.33;;;;;;;;;;5031763;28;20029;-64
2023/03/10 02:42:16;;;;;;;5.20;1.42;;;;;;;;;;5031388;28;20117;-64
2023/03/10 02:44:43;;;;;;;5.55;1.60;;;;;;;;;;5031382;28;20052;-64
2023/03/10 02:47:10;;;;;;;6.00;1.67;;;;;;;;;;5031640;28;20022;-64
2023/03/10 02:49:36;;;;;;;4.38;1.25;;;;;;;;;;5031466;28;20470;-64
2023/03/10 02:52:04;;;;;;;7.75;1.65;;;;;;;;;;5031821;28;20021;-64
2023/03/10 02:54:30;;;;;;;6.35;1.60;;;;;;;;;;5031477;28;20032;-64
2023/03/10 02:56:56;;;;;;;4.72;1.45;;;;;;;;;;5031452;28;20393;-64
2023/03/10 02:59:22;;;;;;;4.95;1.38;;;;;;;;;;5031258;28;20026;-64
2023/03/10 03:01:48;;;;;;;5.68;1.20;;;;;;;;;;5037982;28;20028;-64
2023/03/10 03:04:14;;;;;;;3.65;1.40;;;;;;;;;;5051628;28;20025;-65
2023/03/10 03:06:40;;;;;;;6.05;1.60;;;;;;;;;;5038390;28;20025;-64
2023/03/10 03:09:06;;;;;;;5.15;1.77;;;;;;;;;;5031320;28;20052;-64
2023/03/10 03:11:32;;;;;;;4.38;1.50;;;;;;;;;;5031442;28;20502;-64
2023/03/10 03:13:58;;;;;;;6.22;1.50;;;;;;;;;;5031384;28;20026;-64
2023/03/10 03:16:24;;;;;;;4.68;1.38;;;;;;;;;;5031327;28;20060;-64
2023/03/10 03:18:50;;;;;;;5.43;1.55;;;;;;;;;;5044696;28;20021;-64
2023/03/10 03:21:16;;;;;;;4.90;1.52;;;;;;;;;;5051273;28;20021;-64
2023/03/10 03:23:43;;;;;;;4.20;1.30;;;;;;;;;;5051644;28;20032;-65
2023/03/10 03:26:20;;;;;;;5.47;1.63;;;;;;;;;;5051572;28;20021;-64
2023/03/10 03:28:46;;;;;;;5.95;1.58;;;;;;;;;;5051197;28;20028;-64
2023/03/10 03:31:13;;;;;;;5.43;1.83;;;;;;;;;;5051328;28;20029;-64
2023/03/10 03:33:39;;;;;;;5.30;1.50;;;;;;;;;;5046718;28;20017;-64
2023/03/10 03:36:05;;;;;;;2.97;1.23;;;;;;;;;;5031128;28;20393;-65
2023/03/10 03:38:31;;;;;;;6.43;1.48;;;;;;;;;;5030833;28;20022;-64
2023/03/10 03:40:57;;;;;;;5.80;1.50;;;;;;;;;;5030658;28;20037;-64
2023/03/10 03:43:26;;;;;;;6.18;1.70;;;;;;;;;;5030802;28;20114;-64
2023/03/10 03:45:52;;;;;;;5.65;1.70;;;;;;;;;;5029455;28;20033;-64
2023/03/10 03:48:18;;;;;;;6.53;2.00;;;;;;;;;;5030927;28;20135;-64
2023/03/10 03:50:44;;;;;;;4.55;1.60;;;;;;;;;;5030855;28;20049;-64
2023/03/10 03:53:10;;;;;;;7.47;1.63;;;;;;;;;;5030610;28;20105;-64
2023/03/10 03:55:36;;;;;;;6.20;1.60;;;;;;;;;;5030274;28;20034;-65
2023/03/10 03:58:02;;;;;;;6.22;1.80;;;;;;;;;;5030912;28;20351;-64
2023/03/10 04:00:28;;;;;;;8.65;1.90;;;;;;;;;;5030392;28;20486;-64
2023/03/10 04:02:54;;;;;;;6.70;2.15;;;;;;;;;;5030376;28;20084;-64
2023/03/10 04:05:20;;;;;;;6.60;1.90;;;;;;;;;;5030111;28;20025;-64
2023/03/10 04:07:48;;;;;;;5.20;1.50;;;;;;;;;;5030517;28;20452;-65
2023/03/10 04:10:15;;;;;;;8.35;1.95;;;;;;;;;;5030188;28;20114;-64
2023/03/10 04:12:41;;;;;;;5.90;1.75;;;;;;;;;;5030700;28;20030;-64
2023/03/10 04:15:07;;;;;;;5.93;1.27;;;;;;;;;;5030412;28;20032;-64
2023/03/10 04:17:33;;;;;;;6.55;1.80;;;;;;;;;;5030628;28;20125;-64
2023/03/10 04:19:59;;;;;;;6.20;1.70;;;;;;;;;;5032081;28;20030;-64
2023/03/10 04:22:25;;;;;;;5.95;1.75;;;;;;;;;;5034086;28;20038;-64
2023/03/10 04:24:52;;;;;;;7.03;1.38;;;;;;;;;;5034404;28;20440;-64
2023/03/10 04:27:18;;;;;;;6.18;1.55;;;;;;;;;;5034582;28;20398;-64
2023/03/10 04:29:44;;;;;;;4.05;1.50;;;;;;;;;;5034323;28;20041;-64
2023/03/10 04:32:10;;;;;;;5.78;1.70;;;;;;;;;;5034182;28;20094;-64
2023/03/10 04:34:36;;;;;;;6.03;2.25;;;;;;;;;;5033798;28;20040;-64
2023/03/10 04:37:02;;;;;;;9.55;2.13;;;;;;;;;;5033950;28;20018;-64
2023/03/10 04:39:28;;;;;;;5.85;1.40;;;;;;;;;;5033882;28;20038;-64
2023/03/10 04:41:54;;;;;;;5.05;1.73;;;;;;;;;;5034158;28;20105;-64
2023/03/10 04:44:20;;;;;;;6.22;1.65;;;;;;;;;;5033862;28;20025;-64
2023/03/10 04:46:46;;;;;;;3.65;1.17;;;;;;;;;;5033294;28;20032;-64
2023/03/10 04:49:14;;;;;;;5.40;1.85;;;;;;;;;;5034422;28;20033;-64
2023/03/10 04:51:40;;;;;;;6.00;2.15;;;;;;;;;;5034106;28;20037;-64
2023/03/10 04:54:06;;;;;;;6.63;1.92;;;;;;;;;;5033971;28;20029;-64
2023/03/10 04:56:32;;;;;;;5.28;1.98;;;;;;;;;;5033467;28;20041;-64
2023/03/10 04:58:58;;;;;;;4.63;1.38;;;;;;;;;;5033684;28;20288;-63
2023/03/10 05:01:24;;;;;;;5.13;1.75;;;;;;;;;;5039796;28;20088;-64
2023/03/10 05:03:50;;;;;;;5.25;1.25;;;;;;;;;;5054017;28;20025;-64
2023/03/10 05:06:21;;;;;;;9.98;2.13;;;;;;;;;;5040393;28;20117;-64
2023/03/10 05:08:47;;;;;;;6.15;1.67;;;;;;;;;;5033877;28;20029;-64
2023/03/10 05:11:13;;;;;;;5.88;1.70;;;;;;;;;;5034136;28;20037;-64
2023/03/10 05:13:39;;;;;;;5.38;1.70;;;;;;;;;;5033573;28;20516;-64
2023/03/10 05:16:11;;;;;;;5.90;1.20;;;;;;;;;;5033587;28;20033;-64
2023/03/10 05:18:37;;;;;;;5.05;1.58;;;;;;;;;;5047720;28;20104;-64
2023/03/10 05:21:03;;;;;;;6.45;2.10;;;;;;;;;;5053681;28;20478;-64
2023/03/10 05:23:29;;;;;;;4.03;1.67;;;;;;;;;;5053576;28;20024;-64
2023/03/10 05:25:55;;;;;;;5.47;1.83;;;;;;;;;;5053514;28;20029;-64
2023/03/10 05:28:22;;;;;;;5.90;1.98;;;;;;;;;;5053322;28;20013;-64
2023/03/10 05:30:48;;;;;;;5.18;1.85;;;;;;;;;;5041381;28;20048;-64
2023/03/10 05:33:14;;;;;;;6.90;2.20;;;;;;;;;;5032468;28;20030;-64
2023/03/10 05:35:40;;;;;;;5.45;2.40;;;;;;;;;;5033316;28;20061;-64
2023/03/10 05:38:06;;;;;;;5.38;1.55;;;;;;;;;;5033325;28;20025;-64
2023/03/10 05:40:32;;;;;;;5.30;1.40;;;;;;;;;;5032392;28;20075;-64
2023/03/10 05:42:58;;;;;;;5.50;1.70;;;;;;;;;;5033079;28;20041;-64
2023/03/10 05:45:24;;;;;;;6.63;1.55;;;;;;;;;;5032594;28;20034;-64
2023/03/10 05:47:50;;;;;;;5.63;1.63;;;;;;;;;;5032449;28;20436;-62
2023/03/10 05:50:17;;;;;;;5.80;1.33;;;;;;;;;;5032669;28;20099;-62
2023/03/10 05:52:44;;;;;;;5.85;1.58;;;;;;;;;;5033547;28;20021;-63
2023/03/10 05:55:15;;;;;;;6.88;1.80;;;;;;;;;;5032892;28;20065;-63
2023/03/10 05:57:41;;;;;;;6.22;1.90;;;;;;;;;;5032732;28;20028;-62
2023/03/10 06:00:09;;;;;;;5.35;2.00;;;;;;;;;;5032620;28;20021;-63
2023/03/10 06:02:36;;;;;;;9.25;2.10;;;;;;;;;;5032380;28;20069;-63
2023/03/10 06:05:02;;;;;;;5.70;1.60;;;;;;;;;;5032846;28;20031;-62
2023/03/10 06:07:28;;;;;;;5.80;1.70;;;;;;;;;;5032664;28;20096;-64
2023/03/10 06:09:54;;;;;;;5.28;1.88;;;;;;;;;;5032097;28;20046;-61
2023/03/10 06:12:20;;;;;;;5.72;1.58;;;;;;;;;;5052257;28;20363;-64
2023/03/10 06:14:46;;;;;;;6.72;2.25;;;;;;;;;;5046396;28;20068;-63
2023/03/10 06:17:12;;;;;;;5.43;1.77;;;;;;;;;;5032578;28;20060;-63
2023/03/10 06:19:38;;;;;;;10.93;2.13;;;;;;;;;;5032712;28;20059;-64
2023/03/10 06:22:04;;;;;;;5.72;1.42;;;;;;;;;;5032856;28;20406;-63
2023/03/10 06:24:30;;;;;;;6.45;1.83;;;;;;;;;;5032483;28;20151;-64
2023/03/10 06:26:56;;;;;;;5.55;1.42;;;;;;;;;;5032787;28;20079;-64
2023/03/10 06:29:22;;;;;;;5.40;1.52;;;;;;;;;;5032169;28;20441;-64
2023/03/10 06:31:48;;;;;;;5.82;1.85;;;;;;;;;;5031349;28;20021;-64
2023/03/10 06:34:14;;;;;;;4.63;1.17;;;;;;;;;;5031595;28;20030;-64
2023/03/10 06:36:41;;;;;;;5.80;1.67;;;;;;;;;;5032837;28;20025;-63
2023/03/10 06:39:07;;;;;;;5.07;1.88;;;;;;;;;;5032085;28;20040;-63
2023/03/10 06:41:35;;;;;;;4.57;1.35;;;;;;;;;;5031767;28;20104;-63
2023/03/10 06:44:01;;;;;;;10.55;2.42;;;;;;;;;;5032003;28;20036;-64
2023/03/10 06:46:27;;;;;;;5.93;1.95;;;;;;;;;;5031940;28;20421;-63
2023/03/10 06:48:54;;;;;;;7.47;1.77;;;;;;;;;;5034524;28;20090;-63
2023/03/10 06:51:21;;;;;;;4.22;1.52;;;;;;;;;;5052103;28;20024;-64
2023/03/10 06:53:48;;;;;;;4.63;1.70;;;;;;;;;;5052267;28;20025;-64
2023/03/10 06:56:21;;;;;;;7.43;1.95;;;;;;;;;;5050087;28;20079;-63
2023/03/10 06:58:47;;;;;;;7.72;1.60;;;;;;;;;;5037533;28;20024;-63
2023/03/10 07:01:27;;;;;;;7.65;1.77;;;;;;;;;;5052250;28;20044;-63
2023/03/10 07:03:53;;;;;;;6.13;1.67;;;;;;;;;;5036886;28;20461;-63
2023/03/10 07:06:19;;;;;;;6.50;2.10;;;;;;;;;;5031330;28;20105;-66
2023/03/10 07:08:46;;;;;;;5.80;1.88;;;;;;;;;;5031705;28;20037;-63
2023/03/10 07:11:12;;;;;;;5.65;1.67;;;;;;;;;;5032105;28;20030;-63
2023/03/10 07:13:38;;;;;;;5.28;1.88;;;;;;;;;;5031605;28;20108;-62
2023/03/10 07:16:04;;;;;;;6.82;1.92;;;;;;;;;;5031291;28;20136;-63
2023/03/10 07:18:30;;;;;;;7.80;2.60;;;;;;;;;;5031509;28;20159;-64
2023/03/10 07:20:56;;;;;;;7.25;2.53;;;;;;;;;;5031369;28;20495;-63
2023/03/10 07:23:23;;;;;;;6.20;2.20;;;;;;;;;;5031093;28;20493;-64
2023/03/10 07:25:52;;;;;;;5.65;1.70;;;;;;;;;;5030038;28;20493;-64
2023/03/10 07:28:18;;;;;;;8.43;2.28;;;;;;;;;;5032130;28;20022;-64
2023/03/10 07:30:44;;;;;;;7.10;2.25;;;;;;;;;;5030780;28;20034;-64
2023/03/10 07:33:10;;;;;;;6.10;2.08;;;;;;;;;;5049539;28;20430;-64
2023/03/10 07:35:36;;;;;;;10.57;1.88;;;;;;;;;;5051019;28;20052;-64
2023/03/10 07:38:03;;;;;;;5.65;1.70;;;;;;;;;;5030854;28;20029;-64
2023/03/10 07:40:29;;;;;;;6.00;2.30;;;;;;;;;;5030358;28;20037;-64
2023/03/10 07:42:55;;;;;;;6.85;1.90;;;;;;;;;;5031359;28;20389;-64
2023/03/10 07:45:22;;;;;;;4.57;1.65;;;;;;;;;;5030545;28;20028;-65
2023/03/10 07:47:48;;;;;;;5.80;1.90;;;;;;;;;;5030923;28;20108;-65
2023/03/10 07:50:14;;;;;;;7.82;1.98;;;;;;;;;;5030645;28;20120;-64
2023/03/10 07:52:40;;;;;;;6.25;1.85;;;;;;;;;;5031215;28;20029;-66
2023/03/10 07:55:06;;;;;;;7.82;1.92;;;;;;;;;;5029282;28;20032;-65
2023/03/10 07:57:32;;;;;;;4.65;1.83;;;;;;;;;;5029343;28;20017;-66
2023/03/10 07:59:58;;;;;;;6.78;1.67;;;;;;;;;;5029526;28;20541;-66
2023/03/10 08:02:24;;;;;;;7.65;1.55;;;;;;;;;;5029171;28;20025;-66
2023/03/10 08:04:51;;;;;;;6.50;1.88;;;;;;;;;;5029592;28;20033;-65
2023/03/10 08:07:17;;;;;;;7.20;1.90;;;;;;;;;;5029112;28;20030;-65
2023/03/10 08:09:48;;;;;;;6.65;1.98;;;;;;;;;;5029416;28;20037;-65
2023/03/10 08:12:14;;;;;;;6.50;1.75;;;;;;;;;;5029443;28;20022;-65
2023/03/10 08:14:40;;;;;;;6.28;1.75;;;;;;;;;;5030565;28;20484;-65
2023/03/10 08:17:06;;;;;;;5.28;1.70;;;;;;;;;;5030682;28;20025;-65
2023/03/10 08:19:31;;;;;;;6.63;1.63;;;;;;;;;;5030780;28;20105;-65
2023/03/10 08:21:57;;;;;;;5.43;1.75;;;;;;;;;;5031030;28;20033;-64
2023/03/10 08:24:24;;;;;;;3.60;1.48;;;;;;;;;;5030816;28;20104;-63
2023/03/10 08:26:50;;;;;;;3.28;1.48;;;;;;;;;;5030195;28;20037;-64
2023/03/10 08:29:16;;;;;;;4.78;1.40;;;;;;;;;;5030652;28;20033;-64
2023/03/10 08:31:42;;;;;;;3.45;1.35;;;;;;;;;;5038265;28;20021;-64
2023/03/10 08:34:08;;;;;;;5.30;1.70;;;;;;;;;;5038674;28;20648;-64
2023/03/10 08:36:34;;;;;;;3.55;1.20;;;;;;;;;;5044782;28;20274;-64
2023/03/10 08:39:01;;;;;;;6.45;1.50;;;;;;;;;;5033474;28;20029;-64
2023/03/10 08:41:28;;;;;;;3.88;1.52;;;;;;;;;;5044053;28;20040;-64
2023/03/10 08:43:55;;;;;;;5.20;1.45;;;;;;;;;;5039389;28;20664;-64
2023/03/10 08:46:23;;;;;;;5.38;1.52;;;;;;;;;;5036711;28;20025;-63
2023/03/10 08:48:49;;;;;;;2.97;1.08;;;;;;;;;;5046494;28;20025;-64
2023/03/10 08:51:15;;;;;;;2.75;0.95;;;;;;;;;;5033810;28;20033;-64
2023/03/10 08:53:41;;;;;;;2.60;1.15;;;;;;;;;;5042533;28;20429;-63
2023/03/10 08:56:08;;;;;;;5.03;1.70;;;;;;;;;;5041194;28;20036;-64
2023/03/10 08:58:34;;;;;;;3.67;1.40;;;;;;;;;;5033972;28;20415;-64
2023/03/10 09:01:00;;;;;;;3.47;1.50;;;;;;;;;;5027583;28;20406;-64
2023/03/10 09:03:26;;;;;;;2.45;1.15;;;;;;;;;;5041505;28;20389;-64
2023/03/10 09:05:54;;;;;;;2.90;1.00;;;;;;;;;;5033549;28;20029;-64
2023/03/10 09:08:20;;;;;;;5.40;1.90;;;;;;;;;;5033068;28;20037;-64
2023/03/10 09:10:46;;;;;;;2.45;0.95;;;;;;;;;;5033520;28;20087;-64
2023/03/10 09:13:12;;;;;;;3.08;1.00;;;;;;;;;;5035174;28;20021;-64
2023/03/10 09:15:40;;;;;;;4.68;1.05;;;;;;;;;;5035994;28;20029;-64
2023/03/10 09:18:10;;;;;;;3.75;1.00;;;;;;;;;;5040336;28;20031;-64
2023/03/10 09:20:36;;;;;;;3.38;0.88;;;;;;;;;;5032314;28;20045;-64
2023/03/10 09:23:03;;;;;;;3.33;1.08;;;;;;;;;;5033066;28;20478;-64
2023/03/10 09:25:29;;;;;;;4.32;1.30;;;;;;;;;;5040569;28;20076;-65
2023/03/10 09:27:55;;;;;;;3.60;1.17;;;;;;;;;;5031308;28;20105;-64
2023/03/10 09:30:21;;;;;;;2.85;0.93;;;;;;;;;;5031557;28;20120;-64
2023/03/10 09:32:47;;;;;;;1.60;0.70;;;;;;;;;;5029751;28;20022;-68
2023/03/10 09:35:13;;;;;;;2.13;0.85;;;;;;;;;;5030149;28;20033;-68
2023/03/10 09:37:39;;;;;;;1.40;0.63;;;;;;;;;;5030819;28;20117;-63
2023/03/10 09:40:08;;;;;;;3.00;0.80;;;;;;;;;;5030301;28;20038;-64
2023/03/10 09:42:37;;;;;;;1.73;0.70;;;;;;;;;;5030459;28;20040;-64
2023/03/10 09:45:16;;;;;;;3.67;0.82;;;;;;;;;;5032731;28;20021;-66
2023/03/10 09:47:44;;;;;;;1.75;0.70;;;;;;;;;;5036973;28;20107;-62
2023/03/10 09:50:10;;;;;;;8.98;1.02;;;;;;;;;;5049713;28;20076;-65
2023/03/10 09:52:43;;;;;;;2.40;1.00;;;;;;;;;;5033456;28;20057;-64
2023/03/10 09:55:21;;;;;;;5.93;1.20;;;;;;;;;;5035130;28;20033;-65
2023/03/10 09:57:51;;;;;;;4.43;1.23;;;;;;;;;;5040455;28;20032;-64
2023/03/10 10:00:22;;;;;;;2.05;0.70;;;;;;;;;;5041680;28;20051;-65
2023/03/10 10:02:49;;;;;;;2.55;0.75;;;;;;;;;;5030597;28;20062;-64
2023/03/10 10:05:25;;;;;;;2.22;0.77;;;;;;;;;;5032345;28;20029;-64
2023/03/10 10:07:54;;;;;;;3.65;0.90;;;;;;;;;;5034447;28;20030;-65
2023/03/10 10:10:28;;;;;;;2.00;0.90;;;;;;;;;;5031436;28;20041;-65
2023/03/10 10:12:55;;;;;;;3.00;0.88;;;;;;;;;;5031442;28;20035;-65
2023/03/10 10:15:23;;;;;;;2.90;0.80;;;;;;;;;;5032117;28;20021;-61
2023/03/10 10:18:07;;;;;;;2.75;1.10;;;;;;;;;;5028242;28;20478;-60
2023/03/10 10:20:38;;;;;;;2.30;1.10;;;;;;;;;;5028598;28;20032;-62
2023/03/10 10:23:10;;;;;;;4.15;1.17;;;;;;;;;;5027810;28;20029;-64
2023/03/10 10:25:36;;;;;;;2.08;1.10;;;;;;;;;;5029861;28;20025;-60
2023/03/10 10:28:04;;;;;;;4.72;1.10;;;;;;;;;;5029886;28;20024;-61
2023/03/10 10:30:33;;;;;;;2.97;1.10;;;;;;;;;;5033302;28;20041;-60
2023/03/10 10:33:00;;;;;;;4.53;1.23;;;;;;;;;;5030122;28;20104;-61
2023/03/10 10:35:28;;;;;;;2.75;1.08;;;;;;;;;;5030251;28;20104;-60
2023/03/10 10:38:02;;;;;;;2.17;0.90;;;;;;;;;;5030718;28;20029;-63
2023/03/10 10:40:32;;;;;;;5.68;1.10;;;;;;;;;;5028056;28;20032;-59
2023/03/10 10:43:04;;;;;;;2.45;0.98;;;;;;;;;;5031842;28;20112;-61
2023/03/10 10:45:39;;;;;;;2.95;0.90;;;;;;;;;;5028933;28;20060;-62
2023/03/10 10:48:06;;;;;;;3.97;1.23;;;;;;;;;;5030915;28;20037;-59
2023/03/10 10:50:33;;;;;;;3.17;0.90;;;;;;;;;;5031350;28;20288;-60
2023/03/10 10:53:14;;;;;;;4.80;1.30;;;;;;;;;;5033446;28;20494;-60
2023/03/10 10:55:40;;;;;;;4.18;1.08;;;;;;;;;;5028493;28;20516;-60
2023/03/10 10:58:23;;;;;;;2.95;1.00;;;;;;;;;;5029556;28;20036;-60
2023/03/10 11:00:57;;;;;;;1.75;0.70;;;;;;;;;;5027230;28;20022;-61
2023/03/10 11:03:26;;;;;;;2.03;0.82;;;;;;;;;;5029377;28;20052;-62
2023/03/10 11:05:52;;;;;;;1.50;0.88;;;;;;;;;;5020384;28;20482;-59
2023/03/10 11:08:31;;;;;;;3.05;0.85;;;;;;;;;;5029436;28;20036;-60
2023/03/10 11:11:15;;;;;;;1.90;0.82;;;;;;;;;;5022659;28;20041;-60
2023/03/10 11:13:56;;;;;;;2.00;0.88;;;;;;;;;;5013706;28;20022;-61
2023/03/10 11:16:27;;;;;;;1.73;0.80;;;;;;;;;;5019810;28;20502;-61
2023/03/10 11:19:00;;;;;;;2.67;0.88;;;;;;;;;;5020449;28;20025;-59
2023/03/10 11:21:31;;;;;;;1.92;0.80;;;;;;;;;;5019538;28;20032;-60
2023/03/10 11:24:11;;;;;;;2.13;0.90;;;;;;;;;;5028141;28;20436;-60
2023/03/10 11:26:51;;;;;;;1.70;0.80;;;;;;;;;;5027031;28;20034;-60
2023/03/10 11:29:17;;;;;;;2.25;0.82;;;;;;;;;;5030270;28;20029;-61
2023/03/10 11:32:01;;;;;;;1.45;0.65;;;;;;;;;;5031072;28;20401;-60
2023/03/10 11:34:29;;;;;;;2.63;0.80;;;;;;;;;;5030896;28;20021;-62
2023/03/10 11:37:15;;;;;;;1.95;0.70;;;;;;;;;;5028946;28;20029;-60
2023/03/10 11:39:56;;;;;;;2.40;0.73;;;;;;;;;;5028268;28;20025;-60
2023/03/10 11:42:28;;;;;;;2.13;0.70;;;;;;;;;;5028058;28;20029;-60
2023/03/10 11:45:01;;;;;;;1.77;0.80;;;;;;;;;;5028375;28;20029;-61
2023/03/10 11:47:41;;;;;;;6.28;1.60;;;;;;;;;;5029687;28;20056;-59
2023/03/10 11:50:19;;;;;;;7.07;1.50;;;;;;;;;;5012479;28;20036;-61
2023/03/10 11:52:45;;;;;;;12.15;2.15;;;;;;;;;;5012478;28;20045;-60
2023/03/10 11:55:17;;;;;;;14.35;2.17;;;;;;;;;;5013126;28;20056;-65
2023/03/10 11:57:45;;;;;;;17.23;2.88;;;;;;;;;;5015521;28;20028;-61
2023/03/10 12:00:18;;;;;;;15.45;3.33;;;;;;;;;;5017794;28;20059;-63
2023/03/10 12:02:49;;;;;;;12.65;3.10;;;;;;;;;;5025537;28;20490;-61
2023/03/10 12:05:20;;;;;;;17.20;3.67;;;;;;;;;;5017449;28;20033;-61
2023/03/10 12:07:48;;;;;;;21.08;3.35;;;;;;;;;;5023187;28;20037;-61
2023/03/10 12:10:20;;;;;;;15.52;4.15;;;;;;;;;;5014501;28;20045;-61
2023/03/10 12:12:50;;;;;;;18.02;3.05;;;;;;;;;;5014476;28;20033;-62
2023/03/10 12:15:19;;;;;;;18.35;3.58;;;;;;;;;;5014234;28;20029;-61
2023/03/10 12:17:48;;;;;;;12.27;2.80;;;;;;;;;;5029015;28;20084;-61
2023/03/10 12:20:16;;;;;;;12.88;3.92;;;;;;;;;;5021495;28;20061;-61
2023/03/10 12:22:45;;;;;;;14.18;3.03;;;;;;;;;;5015704;28;20044;-60
2023/03/10 12:25:29;;;;;;;11.75;2.70;;;;;;;;;;5024880;28;20029;-60
2023/03/10 12:28:14;;;;;;;9.45;2.83;;;;;;;;;;5016311;28;20487;-60
2023/03/10 12:30:50;;;;;;;14.00;2.90;;;;;;;;;;5017774;28;20041;-64
2023/03/10 12:33:38;;;;;;;13.07;2.75;;;;;;;;;;5028838;28;20053;-60
2023/03/10 12:36:04;;;;;;;11.90;2.80;;;;;;;;;;5013684;28;20112;-60
2023/03/10 12:38:36;;;;;;;14.82;3.00;;;;;;;;;;5026666;28;20105;-60
2023/03/10 12:41:02;;;;;;;11.73;2.97;;;;;;;;;;5020230;28;20024;-57
2023/03/10 12:43:46;;;;;;;10.20;2.38;;;;;;;;;;5034698;28;20105;-59
2023/03/10 12:46:18;;;;;;;7.85;2.22;;;;;;;;;;5032557;28;20033;-58
2023/03/10 12:48:48;;;;;;;9.77;2.70;;;;;;;;;;5014578;28;20032;-59
2023/03/10 12:51:17;;;;;;;8.32;2.17;;;;;;;;;;5014012;28;20038;-59
2023/03/10 12:53:52;;;;;;;10.45;2.22;;;;;;;;;;5024491;28;20029;-59
2023/03/10 12:56:20;;;;;;;10.35;2.28;;;;;;;;;;5030069;28;20025;-59
2023/03/10 12:58:49;;;;;;;5.88;2.05;;;;;;;;;;5033440;28;20027;-59
2023/03/10 13:01:18;;;;;;;8.85;2.35;;;;;;;;;;5033036;28;20039;-59
2023/03/10 13:03:46;;;;;;;12.80;2.38;;;;;;;;;;5049777;28;20428;-59
2023/03/10 13:06:12;;;;;;;7.88;2.25;;;;;;;;;;5035579;28;20033;-59
2023/03/10 13:08:53;;;;;;;8.73;2.10;;;;;;;;;;5032939;28;20032;-59
2023/03/10 13:11:19;;;;;;;8.40;2.42;;;;;;;;;;5032695;28;20041;-59
2023/03/10 13:13:50;;;;;;;9.00;2.47;;;;;;;;;;5032153;28;20036;-60
2023/03/10 13:16:17;;;;;;;7.53;1.73;;;;;;;;;;5031723;28;20040;-59
2023/03/10 13:18:50;;;;;;;6.47;2.05;;;;;;;;;;5032990;28;20025;-59
2023/03/10 13:21:24;;;;;;;5.90;1.75;;;;;;;;;;5032441;28;20514;-59
2023/03/10 13:23:50;;;;;;;8.20;2.08;;;;;;;;;;5030965;28;20022;-59
2023/03/10 13:26:16;;;;;;;4.80;1.73;;;;;;;;;;5033327;28;20500;-59
2023/03/10 13:28:52;;;;;;;6.68;1.63;;;;;;;;;;5032195;28;20080;-59
2023/03/10 13:31:20;;;;;;;7.28;1.70;;;;;;;;;;5033665;28;20072;-60
2023/03/10 13:33:47;;;;;;;5.35;1.40;;;;;;;;;;5031651;28;20048;-59
2023/03/10 13:36:32;;;;;;;5.47;1.48;;;;;;;;;;5032472;28;20026;-59
2023/03/10 13:39:02;;;;;;;4.65;1.50;;;;;;;;;;5033484;28;20025;-59
2023/03/10 13:41:29;;;;;;;5.50;1.55;;;;;;;;;;5032466;28;20029;-59
2023/03/10 13:43:55;;;;;;;4.43;1.23;;;;;;;;;;5029940;28;20132;-59
2023/03/10 13:46:24;;;;;;;6.30;1.77;;;;;;;;;;5033301;28;20017;-59
2023/03/10 13:48:51;;;;;;;7.22;1.50;;;;;;;;;;5033409;28;20033;-59
2023/03/10 13:51:22;;;;;;;4.65;1.65;;;;;;;;;;5032716;28;20033;-59
2023/03/10 13:53:51;;;;;;;7.43;1.73;;;;;;;;;;5033395;28;20477;-59
2023/03/10 13:56:17;;;;;;;4.18;1.33;;;;;;;;;;5033052;28;20029;-59
2023/03/10 13:58:44;;;;;;;4.45;1.35;;;;;;;;;;5033185;28;20026;-59
2023/03/10 14:01:23;;;;;;;6.32;1.50;;;;;;;;;;5032364;28;20402;-59
2023/03/10 14:03:51;;;;;;;6.05;1.20;;;;;;;;;;5032766;28;20494;-59
2023/03/10 14:06:16;;;;;;;5.30;1.20;;;;;;;;;;5032269;28;20394;-59
2023/03/10 14:08:42;;;;;;;4.75;1.52;;;;;;;;;;5032490;28;20045;-59
2023/03/10 14:11:21;;;;;;;7.35;1.38;;;;;;;;;;5031059;28;20453;-59
2023/03/10 14:13:47;;;;;;;3.80;1.23;;;;;;;;;;5033153;28;20027;-59
2023/03/10 14:16:13;;;;;;;5.55;1.20;;;;;;;;;;5033200;28;20056;-59
2023/03/10 14:18:40;;;;;;;3.75;1.15;;;;;;;;;;5033327;28;20022;-59
2023/03/10 14:21:22;;;;;;;4.85;1.17;;;;;;;;;;5032660;28;20060;-59
2023/03/10 14:23:48;;;;;;;3.53;1.00;;;;;;;;;;5032933;28;20032;-60
2023/03/10 14:26:17;;;;;;;3.75;1.00;;;;;;;;;;5032828;28;20394;-59
2023/03/10 14:28:43;;;;;;;4.00;1.83;;;;;;;;;;5032133;28;20573;-60
2023/03/10 14:31:22;;;;;;;3.72;1.02;;;;;;;;;;5049334;28;20059;-59
2023/03/10 14:33:49;;;;;;;3.58;1.42;;;;;;;;;;5052730;28;20118;-59
2023/03/10 14:36:15;;;;;;;2.65;1.27;;;;;;;;;;5052170;28;20039;-60
2023/03/10 14:38:44;;;;;;;3.75;1.58;;;;;;;;;;5052811;28;20021;-61
2023/03/10 14:41:10;;;;;;;2.38;1.00;;;;;;;;;;5052588;28;20108;-60
2023/03/10 14:43:36;;;;;;;4.65;1.50;;;;;;;;;;5036184;28;20033;-59
2023/03/10 14:46:04;;;;;;;3.70;1.10;;;;;;;;;;5032760;28;20343;-59
2023/03/10 14:48:33;;;;;;;2.72;1.08;;;;;;;;;;5030675;28;20033;-59